Terminal Aerodrome Forecast
Issued by NWS

Home | Current Version | Previous Version | Text Only | Print | Product List | Glossary On
Versions: 1 2 3 4 5 6 7 8 9 10 11 12 13 14 15 16 17
000
FTUS41 KALY 230537
TAFPSF
TAF
KPSF 230537Z 2306/2406 30005KT P6SM SCT060
     FM230900 30004KT P6SM SKC
     FM231300 30008KT P6SM SKC
     FM231500 28013G23KT P6SM FEW060
     FM232300 24009KT P6SM SCT100 SCT250
     FM240200 23005KT P6SM SCT100 SCT250=

USA.gov is the U.S. government's official web portal to all federal, state and local government web resources and services.